Time;durP1;ratioP1;P1;durP2;ratioP2;P2;SDS_P1;SDS_P2;PMS_P1;PMS_P2;Temp;Humidity;BMP_temperature;BMP_pressure;BME280_temperature;BME280_humidity;BME280_pressure;Samples;Min_cycle;Max_cycle;Signal;HPM_P1;HPM_P2
2021/07/03 00:00:26;;;;;;;7.25;2.40;;;;;;;22.39;100.00;99568.28;1719611;81;20991;-44
2021/07/03 00:02:52;;;;;;;6.15;2.30;;;;;;;22.39;100.00;99571.52;1724361;81;21544;-45
2021/07/03 00:05:19;;;;;;;3.15;1.52;;;;;;;22.36;100.00;99558.32;1721753;82;20940;-43
2021/07/03 00:07:45;;;;;;;6.58;2.85;;;;;;;22.32;100.00;99562.43;1721661;81;20995;-44
2021/07/03 00:10:12;;;;;;;6.50;2.02;;;;;;;22.31;100.00;99567.03;1719909;81;20975;-45
2021/07/03 00:12:39;;;;;;;3.60;1.62;;;;;;;22.32;100.00;99571.41;1721531;82;20990;-44
2021/07/03 00:15:09;;;;;;;6.33;1.85;;;;;;;22.32;100.00;99576.01;1721833;81;21466;-44
2021/07/03 00:17:36;;;;;;;2.27;1.57;;;;;;;22.31;100.00;99569.73;1722344;81;20935;-44
2021/07/03 00:20:08;;;;;;;4.37;1.82;;;;;;;22.32;100.00;99570.58;1717551;81;21442;-43
2021/07/03 00:22:35;;;;;;;2.20;1.40;;;;;;;22.30;100.00;99566.71;1727951;81;21463;-44
2021/07/03 00:25:01;;;;;;;3.98;1.62;;;;;;;22.29;100.00;99566.36;1667616;84;20993;-44
2021/07/03 00:27:28;;;;;;;4.20;1.47;;;;;;;22.30;100.00;99565.84;1660095;84;20988;-44
2021/07/03 00:29:57;;;;;;;4.62;2.00;;;;;;;22.27;100.00;99558.08;1686850;84;20988;-45
2021/07/03 00:32:24;;;;;;;3.90;2.15;;;;;;;22.23;100.00;99555.75;1674528;84;20957;-44
2021/07/03 00:34:51;;;;;;;5.83;1.77;;;;;;;22.23;100.00;99555.75;1694688;84;21945;-46
2021/07/03 00:37:19;;;;;;;4.72;2.15;;;;;;;;;;1726783;82;20932;-47
2021/07/03 00:39:46;;;;;;;5.78;1.72;;;;;;;;;;1731835;81;20904;-46
2021/07/03 00:42:12;;;;;;;3.30;1.67;;;;;;;22.22;100.00;99560.00;1692713;83;21028;-46
2021/07/03 00:44:40;;;;;;;3.60;1.47;;;;;;;22.22;100.00;99558.64;1725644;81;20939;-45
2021/07/03 00:47:08;;;;;;;6.03;2.00;;;;;;;22.22;100.00;99557.28;1735681;82;21422;-46
2021/07/03 00:49:36;;;;;;;7.08;2.00;;;;;;;22.22;100.00;99558.64;1739593;80;21039;-45
2021/07/03 00:52:05;;;;;;;4.20;1.85;;;;;;;22.19;100.00;99555.78;1741685;82;20946;-45
2021/07/03 00:54:36;;;;;;;1.60;1.50;;;;;;;22.18;100.00;99548.65;1739842;82;20939;-46
2021/07/03 00:57:05;;;;;;;3.98;1.87;;;;;;;22.17;100.00;99542.88;1736058;82;21007;-44
2021/07/03 00:59:34;;;;;;;5.97;2.00;;;;;;;22.15;100.00;99535.45;1744127;82;20978;-45
2021/07/03 01:02:04;;;;;;;6.30;2.30;;;;;;;22.14;100.00;99532.39;1735839;82;21009;-44
2021/07/03 01:04:31;;;;;;;3.62;1.72;;;;;;;22.13;100.00;99529.89;1743555;82;20971;-45
2021/07/03 01:06:59;;;;;;;4.28;2.02;;;;;;;22.11;100.00;99528.70;1741900;80;20924;-44
2021/07/03 01:09:28;;;;;;;3.83;2.33;;;;;;;22.10;100.00;99524.32;1742126;82;21008;-44
2021/07/03 01:11:55;;;;;;;3.75;1.82;;;;;;;22.10;100.00;99529.75;1738444;80;20938;-44
2021/07/03 01:14:23;;;;;;;7.60;2.27;;;;;;;22.08;100.00;99519.59;1739837;82;20923;-44
2021/07/03 01:16:51;;;;;;;4.17;2.47;;;;;;;22.07;100.00;99523.83;1739281;82;21437;-44
2021/07/03 01:19:18;;;;;;;3.90;1.82;;;;;;;22.07;100.00;99516.53;1736279;82;20888;-43
2021/07/03 01:21:53;;;;;;;3.50;1.92;;;;;;;22.05;100.00;99506.40;1740718;82;21430;-43
2021/07/03 01:24:23;;;;;;;5.22;2.10;;;;;;;22.06;100.00;99512.66;1738178;82;20970;-42
2021/07/03 01:26:53;;;;;;;3.95;1.62;;;;;;;22.05;100.00;99515.90;1743705;80;21496;-43
2021/07/03 01:29:23;;;;;;;6.80;2.55;;;;;;;22.04;100.00;99520.98;1737162;81;21010;-45
2021/07/03 01:31:51;;;;;;;2.83;2.10;;;;;;;22.03;100.00;99524.73;1739684;82;20933;-44
2021/07/03 01:34:20;;;;;;;4.80;1.87;;;;;;;22.02;100.00;99527.97;1741213;82;21174;-43
2021/07/03 01:36:46;;;;;;;6.35;1.70;;;;;;;22.01;100.00;99533.57;1740878;82;20926;-44
2021/07/03 01:39:13;;;;;;;3.27;1.72;;;;;;;22.00;100.00;99527.31;1745203;82;20948;-44
2021/07/03 01:41:40;;;;;;;5.12;2.45;;;;;;;21.97;100.00;99529.53;1743779;82;20950;-45
2021/07/03 01:44:07;;;;;;;2.85;1.72;;;;;;;21.95;100.00;99532.97;1741689;81;21000;-48
2021/07/03 01:46:34;;;;;;;4.78;2.80;;;;;;;21.92;100.00;99530.61;1736768;82;21004;-44
2021/07/03 01:49:04;;;;;;;5.03;2.05;;;;;;;21.89;100.00;99531.82;1714450;82;21281;-44
2021/07/03 01:51:33;;;;;;;4.75;2.60;;;;;;;21.89;100.00;99533.17;1738104;82;20978;-45
2021/07/03 01:54:00;;;;;;;4.67;2.27;;;;;;;21.87;100.00;99531.67;1711434;82;20935;-46
2021/07/03 01:56:27;;;;;;;4.33;2.60;;;;;;;21.85;100.00;99537.31;1740443;81;20986;-44
2021/07/03 01:58:53;;;;;;;8.13;2.42;;;;;;;21.83;100.00;99527.98;1743515;81;21005;-44
2021/07/03 02:01:25;;;;;;;4.55;2.80;;;;;;;21.82;100.00;99529.03;1736965;82;20994;-44
2021/07/03 02:03:53;;;;;;;3.77;2.15;;;;;;;21.80;100.00;99527.53;1740329;80;20967;-43
2021/07/03 02:06:25;;;;;;;3.87;2.30;;;;;;;21.80;100.00;99524.81;1737777;81;20938;-45
2021/07/03 02:08:52;;;;;;;5.60;2.65;;;;;;;21.80;100.00;99527.53;1717672;82;20931;-45
2021/07/03 02:11:19;;;;;;;4.80;2.58;;;;;;;21.80;100.00;99520.75;1740754;82;21005;-45
2021/07/03 02:13:48;;;;;;;4.33;2.55;;;;;;;21.79;100.00;99526.66;1740338;82;20945;-47
2021/07/03 02:16:17;;;;;;;9.10;3.75;;;;;;;21.79;100.00;99523.95;1740733;82;21041;-47
2021/07/03 02:18:46;;;;;;;5.55;2.33;;;;;;;21.81;100.00;99525.12;1723717;82;20931;-46
2021/07/03 02:21:15;;;;;;;7.25;3.80;;;;;;;21.79;100.00;99523.95;1745994;82;20947;-47
2021/07/03 02:23:41;;;;;;;5.03;3.02;;;;;;;21.78;100.00;99520.08;1744309;81;20959;-45
2021/07/03 02:26:08;;;;;;;7.17;2.40;;;;;;;21.77;100.00;99521.09;1737466;82;20974;-49
2021/07/03 02:28:35;;;;;;;6.62;3.15;;;;;;;21.76;100.00;99524.33;1736548;81;20942;-47
2021/07/03 02:31:09;;;;;;;6.62;3.85;;;;;;;21.76;100.00;99527.03;1730211;82;20974;-46
2021/07/03 02:33:38;;;;;;;7.70;2.90;;;;;;;21.75;100.00;99533.50;1744961;81;21018;-44
2021/07/03 02:36:06;;;;;;;7.78;5.78;;;;;;;21.73;100.00;99531.48;1716819;82;20938;-44
2021/07/03 02:38:34;;;;;;;17.07;14.83;;;;;;;21.74;100.00;99535.03;1742170;82;20982;-44
2021/07/03 02:41:00;;;;;;;11.90;9.00;;;;;;;21.73;100.00;99537.42;1737250;82;21413;-43
2021/07/03 02:43:29;;;;;;;6.53;3.90;;;;;;;21.72;100.00;99539.80;1713287;82;21529;-43
2021/07/03 02:45:59;;;;;;;6.53;3.12;;;;;;;21.71;100.00;99535.41;1739184;82;21446;-45
2021/07/03 02:52:12;;;;;;;5.20;2.45;;;;;;;21.71;100.00;99539.48;1640965;86;21011;-43
2021/07/03 02:54:44;;;;;;;7.45;2.62;;;;;;;21.68;100.00;99542.05;1644272;86;21029;-44
2021/07/03 02:57:10;;;;;;;6.00;2.67;;;;;;;21.68;100.00;99542.05;1647425;86;20983;-44
2021/07/03 02:59:37;;;;;;;3.10;2.62;;;;;;;21.68;100.00;99544.75;1651729;86;20983;-44
2021/07/03 03:02:04;;;;;;;6.03;3.12;;;;;;;21.66;100.00;99540.02;1644952;86;21026;-43
2021/07/03 03:04:31;;;;;;;4.20;2.90;;;;;;;21.66;100.00;99548.16;1647979;86;20940;-43
2021/07/03 03:06:58;;;;;;;6.28;3.08;;;;;;;21.67;100.00;99554.42;1594075;88;21469;-43
2021/07/03 03:09:38;;;;;;;5.40;2.92;;;;;;;21.66;100.00;99550.87;1593000;88;21551;-44
2021/07/03 03:12:05;;;;;;;4.25;2.98;;;;;;;21.67;100.00;99553.06;1593786;88;21057;-43
2021/07/03 03:14:59;;;;;;;4.78;3.62;;;;;;;21.69;100.00;99552.37;1590040;88;20997;-45
2021/07/03 03:17:30;;;;;;;4.28;3.10;;;;;;;21.70;100.00;99548.13;1555736;91;21031;-43
2021/07/03 03:19:57;;;;;;;3.95;2.95;;;;;;;21.71;100.00;99557.11;1558586;91;21007;-43
2021/07/03 03:22:27;;;;;;;12.85;4.15;;;;;;;21.71;100.00;99561.17;1572676;90;20977;-43
2021/07/03 03:24:54;;;;;;;6.15;4.25;;;;;;;21.71;100.00;99553.88;1550981;91;21040;-42
2021/07/03 03:27:20;;;;;;;6.53;3.27;;;;;;;21.72;100.00;99554.71;1559372;86;21083;-41
2021/07/03 03:29:47;;;;;;;5.40;3.50;;;;;;;21.74;100.00;99552.14;1690526;84;20953;-43
2021/07/03 03:32:14;;;;;;;6.10;3.60;;;;;;;21.78;100.00;99558.90;1684812;84;20985;-43
2021/07/03 03:34:41;;;;;;;6.08;3.52;;;;;;;21.80;100.00;99562.28;1667034;84;21488;-42
2021/07/03 03:37:09;;;;;;;7.05;3.80;;;;;;;21.82;100.00;99560.23;1640658;85;20999;-42
2021/07/03 03:39:38;;;;;;;7.55;3.70;;;;;;;21.84;100.00;99561.38;1681314;84;20937;-41
2021/07/03 03:42:05;;;;;;;7.28;4.00;;;;;;;21.85;100.00;99568.52;1692296;84;21008;-40
2021/07/03 03:44:32;;;;;;;6.37;4.20;;;;;;;21.87;100.00;99565.59;1686257;84;21033;-42
2021/07/03 03:47:00;;;;;;;10.13;3.83;;;;;;;21.89;100.00;99569.81;1686546;82;20941;-45
2021/07/03 03:49:28;;;;;;;7.65;3.42;;;;;;;21.90;100.00;99575.58;1736997;82;21548;-43
2021/07/03 03:51:57;;;;;;;6.87;3.12;;;;;;;21.92;100.00;99571.31;1743057;82;21497;-45
2021/07/03 03:54:25;;;;;;;6.00;4.00;;;;;;;21.93;100.00;99570.30;1738496;81;20986;-43
2021/07/03 03:57:21;;;;;;;8.25;5.03;;;;;;;21.93;100.00;99568.94;1738824;82;20927;-43
2021/07/03 03:59:21;;;;;;;8.38;3.90;;;;;;;21.93;100.00;99571.66;1742725;81;21005;-43
2021/07/03 04:01:51;;;;;;;5.87;4.47;;;;;;;21.93;100.00;99573.02;1742488;82;21422;-45
2021/07/03 04:04:20;;;;;;;8.48;5.58;;;;;;;21.93;100.00;99571.66;1743957;82;20982;-48
2021/07/03 04:06:47;;;;;;;10.18;5.10;;;;;;;21.94;100.00;99570.61;1743350;82;20942;-45
2021/07/03 04:09:14;;;;;;;8.03;4.50;;;;;;;21.95;100.00;99568.25;1742783;82;21013;-45
2021/07/03 04:11:41;;;;;;;9.18;5.10;;;;;;;21.95;100.00;99565.02;1745077;82;21697;-46
2021/07/03 04:14:07;;;;;;;5.40;4.42;;;;;;;21.93;100.00;99565.70;1745175;82;20958;-43
2021/07/03 04:16:34;;;;;;;7.60;4.75;;;;;;;21.94;100.00;99561.13;1739901;81;20954;-45
2021/07/03 04:19:02;;;;;;;8.83;5.53;;;;;;;21.95;100.00;99562.30;1741997;82;21384;-44
2021/07/03 04:21:29;;;;;;;6.17;5.15;;;;;;;21.96;100.00;99563.97;1738007;82;21494;-49
2021/07/03 04:23:56;;;;;;;4.87;4.05;;;;;;;21.99;100.00;99564.95;1745406;82;20963;-46
2021/07/03 04:26:23;;;;;;;7.53;4.80;;;;;;;22.01;100.00;99562.06;1739237;82;20934;-44
2021/07/03 04:28:50;;;;;;;7.25;4.28;;;;;;;22.06;100.00;99570.49;1744493;82;21454;-46
2021/07/03 04:31:17;;;;;;;6.10;4.40;;;;;;;22.07;100.00;99569.45;1741650;82;21434;-44
2021/07/03 04:33:44;;;;;;;5.83;4.65;;;;;;;22.11;100.00;99568.58;1742989;82;20942;-43
2021/07/03 04:36:11;;;;;;;6.83;4.90;;;;;;;22.13;100.00;99563.30;1745113;82;21824;-47
2021/07/03 04:38:38;;;;;;;7.12;4.40;;;;;;;22.18;100.00;99559.51;1738110;82;21578;-44
2021/07/03 04:41:06;;;;;;;6.33;4.40;;;;;;;22.20;100.00;99556.62;1717345;82;20967;-46
2021/07/03 04:43:33;;;;;;;6.90;5.17;;;;;;;;;;1690854;84;21035;-44
2021/07/03 04:46:01;;;;;;;6.92;4.37;;;;;;;22.27;100.00;99548.58;1710482;83;21071;-48
2021/07/03 04:48:28;;;;;;;6.53;5.05;;;;;;;22.29;100.00;99546.52;1681928;84;20968;-46
2021/07/03 04:50:56;;;;;;;8.68;5.00;;;;;;;22.32;100.00;99545.62;1680137;85;21503;-44
2021/07/03 04:53:22;;;;;;;6.12;5.53;;;;;;;22.35;100.00;99544.41;1676802;85;20956;-46
2021/07/03 04:55:49;;;;;;;6.35;4.42;;;;;;;22.36;100.00;99543.39;1712927;82;20972;-43
2021/07/03 04:58:16;;;;;;;6.53;4.72;;;;;;;22.35;100.00;99544.41;1708933;82;20962;-48
2021/07/03 05:00:43;;;;;;;9.08;5.05;;;;;;;22.35;100.00;99547.98;1708395;83;21003;-47
2021/07/03 05:03:10;;;;;;;9.88;5.15;;;;;;;22.38;100.00;99549.48;1711186;81;20928;-47
2021/07/03 05:05:37;;;;;;;7.55;5.83;;;;;;;22.42;100.00;99549.41;1703487;81;20972;-48
2021/07/03 05:08:04;;;;;;;8.05;6.42;;;;;;;22.45;100.00;99547.67;1712186;81;21581;-50
2021/07/03 05:10:32;;;;;;;7.70;6.20;;;;;;;22.50;100.00;99549.82;1714846;81;21506;-46
2021/07/03 05:12:59;;;;;;;6.75;5.25;;;;;;;22.52;100.00;99551.84;1708715;81;21564;-44
2021/07/03 05:15:27;;;;;;;9.10;7.25;;;;;;;22.56;100.00;99549.91;1705860;81;20954;-47
2021/07/03 05:17:55;;;;;;;10.08;8.10;;;;;;;22.60;100.00;99552.59;1712985;83;21458;-42
2021/07/03 05:20:24;;;;;;;7.90;7.10;;;;;;;22.64;100.00;99555.76;1719162;82;20995;-46
2021/07/03 05:22:50;;;;;;;9.88;6.87;;;;;;;22.66;100.00;99557.77;1714166;82;20983;-44
2021/07/03 05:25:17;;;;;;;8.40;6.58;;;;;;;22.69;100.00;99557.39;1720029;83;20968;-44
2021/07/03 05:27:43;;;;;;;6.72;6.12;;;;;;;22.74;100.00;99560.89;1718600;82;20964;-45
2021/07/03 05:30:11;;;;;;;11.03;7.15;;;;;;;22.77;100.00;99560.51;1713534;81;20988;-45
2021/07/03 05:32:38;;;;;;;9.53;7.60;;;;;;;22.78;100.00;99564.89;1713960;81;21431;-45
2021/07/03 05:35:06;;;;;;;8.65;7.85;;;;;;;22.76;100.00;99570.54;1715539;81;20924;-44
2021/07/03 05:37:33;;;;;;;8.23;7.45;;;;;;;22.78;100.00;99567.61;1718915;81;21030;-45
2021/07/03 05:39:59;;;;;;;9.43;8.20;;;;;;;22.82;100.00;99571.12;1714595;83;21458;-45
2021/07/03 05:42:26;;;;;;;9.18;8.30;;;;;;;22.86;100.00;99564.80;1704948;82;20990;-47
2021/07/03 05:44:53;;;;;;;10.40;8.85;;;;;;;22.91;100.00;99563.72;1671137;84;21035;-49
2021/07/03 05:47:20;;;;;;;9.70;8.05;;;;;;;22.94;100.00;99564.69;1703371;83;20932;-48
2021/07/03 05:49:51;;;;;;;9.30;8.40;;;;;;;22.96;100.00;99562.62;1715853;81;20992;-45
2021/07/03 05:52:18;;;;;;;8.45;7.70;;;;;;;22.98;100.00;99561.95;1666547;84;20991;-43
2021/07/03 05:54:45;;;;;;;8.88;8.05;;;;;;;23.01;100.00;99563.44;1710400;82;21007;-44
2021/07/03 05:57:12;;;;;;;8.83;8.03;;;;;;;23.02;100.00;99556.95;1712294;83;20972;-44
2021/07/03 05:59:40;;;;;;;9.18;8.38;;;;;;;23.04;100.00;99560.33;1710087;82;20968;-43
2021/07/03 06:02:08;;;;;;;8.75;7.95;;;;;;;23.07;100.00;99558.58;1709636;83;20987;-43
2021/07/03 06:04:35;;;;;;;8.38;7.47;;;;;;;23.08;100.00;99565.20;1707625;83;21754;-44
2021/07/03 06:07:02;;;;;;;9.20;8.23;;;;;;;23.08;100.00;99564.33;1707728;82;20988;-44
2021/07/03 06:09:29;;;;;;;8.80;7.95;;;;;;;23.08;100.00;99554.32;1713119;82;21027;-44
2021/07/03 06:11:56;;;;;;;9.78;8.78;;;;;;;23.09;100.00;99559.23;1714957;82;21463;-45
2021/07/03 06:14:22;;;;;;;8.23;7.42;;;;;;;23.10;100.00;99556.30;1711674;81;20979;-43
2021/07/03 06:16:49;;;;;;;8.35;7.55;;;;;;;23.15;100.00;99556.25;1711326;82;21539;-45
2021/07/03 06:19:20;;;;;;;7.37;6.40;;;;;;;23.18;100.00;99549.90;1709201;81;20983;-49
2021/07/03 06:21:46;;;;;;;8.30;7.42;;;;;;;23.18;100.00;99550.42;1704428;81;20967;-51
2021/07/03 06:24:13;;;;;;;7.87;7.17;;;;;;;23.21;100.00;99544.59;1709606;81;20968;-50
2021/07/03 06:26:40;;;;;;;9.85;7.72;;;;;;;23.19;100.00;99542.61;1709360;83;21043;-51
2021/07/03 06:29:07;;;;;;;9.98;7.72;;;;;;;23.20;100.00;99541.04;1711776;81;21003;-48
2021/07/03 06:31:34;;;;;;;9.15;7.25;;;;;;;23.19;100.00;99535.81;1711656;83;21004;-48
2021/07/03 06:34:00;;;;;;;7.62;6.70;;;;;;;23.19;100.00;99536.65;1703952;83;21000;-45
2021/07/03 06:36:29;;;;;;;9.38;7.85;;;;;;;23.22;100.00;99536.78;1709930;82;21529;-46
2021/07/03 06:38:56;;;;;;;8.75;8.00;;;;;;;23.28;100.00;99538.70;1711384;81;21039;-45
2021/07/03 06:41:23;;;;;;;8.10;7.30;;;;;;;23.34;100.00;99539.30;1711191;81;20955;-46
2021/07/03 06:43:50;;;;;;;8.95;7.25;;;;;;;23.41;100.00;99544.29;1710299;82;21007;-44
2021/07/03 06:46:22;;;;;;;6.97;6.35;;;;;;;23.46;100.00;99547.27;1707233;83;20996;-44
2021/07/03 06:48:50;;;;;;;8.35;6.28;;;;;;;23.50;100.00;99546.34;1709744;81;21019;-45
2021/07/03 06:51:17;;;;;;;7.22;6.53;;;;;;;23.55;100.00;99546.06;1705712;81;21474;-43
2021/07/03 06:53:44;;;;;;;7.03;6.33;;;;;;;23.61;100.00;99547.68;1706744;81;20988;-45
2021/07/03 06:56:10;;;;;;;7.37;6.67;;;;;;;23.66;100.00;99542.48;1706546;81;21498;-44
2021/07/03 06:58:38;;;;;;;7.55;6.67;;;;;;;23.68;100.00;99542.61;1710872;83;20999;-46
2021/07/03 07:01:04;;;;;;;7.87;6.90;;;;;;;23.73;100.00;99547.50;1712597;81;21015;-50
2021/07/03 07:03:31;;;;;;;6.55;5.90;;;;;;;23.79;100.00;99548.58;1708010;81;21459;-44
2021/07/03 07:05:58;;;;;;;7.87;6.97;;;;;;;23.85;100.00;99551.89;1710830;81;21000;-45
2021/07/03 07:08:25;;;;;;;8.13;6.90;;;;;;;23.89;100.00;99553.16;1713161;83;21015;-47
2021/07/03 07:10:52;;;;;;;7.42;6.37;;;;;;;23.96;100.00;99552.69;1706499;83;21034;-51
2021/07/03 07:13:21;;;;;;;7.45;6.35;;;;;;;24.01;100.00;99555.66;1710285;82;21059;-45
2021/07/03 07:15:47;;;;;;;7.42;6.72;;;;;;;24.08;100.00;99555.71;1715325;81;20976;-45
2021/07/03 07:18:15;;;;;;;6.65;6.03;;;;;;;24.13;100.00;99553.23;1709185;83;21510;-48
2021/07/03 07:20:42;;;;;;;8.48;6.65;;;;;;;24.17;100.00;99554.52;1709135;82;21027;-46
2021/07/03 07:23:09;;;;;;;6.62;5.95;;;;;;;24.23;100.00;99559.16;1710221;83;21459;-47
2021/07/03 07:25:35;;;;;;;7.28;5.80;;;;;;;24.28;100.00;99561.28;1714757;81;20936;-47
2021/07/03 07:28:02;;;;;;;6.53;5.92;;;;;;;24.33;100.00;99552.82;1711023;83;20972;-51
2021/07/03 07:30:29;;;;;;;6.80;6.12;;;;;;;24.38;100.00;99546.77;1681278;84;20991;-43
2021/07/03 07:32:56;;;;;;;8.70;7.05;;;;;;;24.41;100.00;99548.56;1722878;81;21435;-42
2021/07/03 07:35:22;;;;;;;6.25;5.72;;;;;;;24.47;100.00;99552.41;1713142;81;20920;-49
2021/07/03 07:37:50;;;;;;;7.20;6.50;;;;;;;24.54;100.00;99556.52;1707857;81;21046;-48
2021/07/03 07:40:17;;;;;;;7.35;5.72;;;;;;;24.58;100.00;99557.27;1711812;81;21447;-41
2021/07/03 07:42:44;;;;;;;8.10;5.72;;;;;;;24.67;100.00;99557.09;1706422;81;20967;-41
2021/07/03 07:45:12;;;;;;;6.45;5.83;;;;;;;24.72;100.00;99554.09;1706334;82;20964;-43
2021/07/03 07:47:39;;;;;;;6.15;5.55;;;;;;;24.76;100.00;99559.44;1707194;81;21479;-40
2021/07/03 07:50:06;;;;;;;8.48;6.35;;;;;;;24.81;100.00;99559.66;1702803;82;20972;-41
2021/07/03 07:52:32;;;;;;;7.33;6.05;;;;;;;24.86;100.00;99560.42;1697535;82;20952;-42
2021/07/03 07:55:00;;;;;;;7.60;5.50;;;;;;;24.88;100.00;99561.59;1703121;82;20999;-41
2021/07/03 07:57:27;;;;;;;8.08;6.62;;;;;;;24.88;100.00;99556.97;1694490;82;21024;-40
2021/07/03 07:59:55;;;;;;;5.92;5.42;;;;;;;24.88;100.00;99561.59;1704480;82;20967;-41
2021/07/03 08:02:22;;;;;;;9.18;7.03;;;;;;;24.87;100.00;99558.53;1708055;82;20980;-41
2021/07/03 08:04:48;;;;;;;7.25;6.40;;;;;;;24.85;100.00;99565.56;1700863;83;20955;-44
2021/07/03 08:07:15;;;;;;;7.20;6.17;;;;;;;24.82;100.00;99553.19;1699319;82;21019;-42
2021/07/03 08:09:44;;;;;;;8.50;7.28;;;;;;;24.77;100.00;99558.41;1703519;82;21000;-42
2021/07/03 08:12:12;;;;;;;8.03;6.37;;;;;;;24.72;100.00;99559.55;1700239;83;20960;-40
2021/07/03 08:14:40;;;;;;;6.97;6.37;;;;;;;24.71;100.00;99557.02;1706922;82;20960;-43
2021/07/03 08:17:06;;;;;;;8.10;5.70;;;;;;;24.73;100.00;99561.74;1690504;83;21007;-40
2021/07/03 08:19:34;;;;;;;7.30;6.60;;;;;;;24.73;100.00;99565.30;1701800;82;20956;-47
2021/07/03 08:22:01;;;;;;;6.92;6.08;;;;;;;24.73;100.00;99560.38;1651412;84;20956;-42
2021/07/03 08:24:28;;;;;;;8.08;6.33;;;;;;;24.71;100.00;99568.75;1702279;83;21031;-42
2021/07/03 08:26:54;;;;;;;7.08;5.80;;;;;;;24.73;100.00;99569.92;1698919;83;21414;-41
2021/07/03 08:29:21;;;;;;;8.38;6.70;;;;;;;24.73;100.00;99567.19;1702730;82;20952;-41
2021/07/03 08:31:47;;;;;;;7.42;6.45;;;;;;;24.71;100.00;99570.11;1698112;82;20991;-42
2021/07/03 08:34:14;;;;;;;6.92;6.28;;;;;;;24.72;100.00;99569.58;1695199;82;21506;-40
2021/07/03 08:36:40;;;;;;;7.30;6.53;;;;;;;24.75;100.00;99563.75;1703019;82;20941;-41
2021/07/03 08:39:07;;;;;;;9.00;5.75;;;;;;;24.79;100.00;99573.18;1700820;82;20917;-42
2021/07/03 08:41:34;;;;;;;6.20;5.37;;;;;;;24.83;100.00;99576.66;1701494;82;20984;-42
2021/07/03 08:44:00;;;;;;;6.53;5.92;;;;;;;24.88;100.00;99576.05;1703873;82;21102;-40
2021/07/03 08:46:26;;;;;;;6.55;5.62;;;;;;;24.91;100.00;99578.89;1702211;82;21003;-40
2021/07/03 08:48:55;;;;;;;6.22;5.62;;;;;;;24.90;100.00;99565.80;1705640;82;20966;-42
2021/07/03 08:51:22;;;;;;;7.22;6.17;;;;;;;24.92;100.00;99567.80;1701548;82;20988;-41
2021/07/03 08:53:50;;;;;;;6.28;5.60;;;;;;;24.96;100.00;99565.48;1703891;82;20932;-40
2021/07/03 08:56:19;;;;;;;6.20;5.62;;;;;;;24.99;100.00;99562.34;1705348;82;21000;-44
2021/07/03 08:59:04;;;;;;;5.45;4.95;;;;;;;25.01;100.00;99565.18;1698830;82;21023;-43
2021/07/03 09:01:30;;;;;;;5.42;4.92;;;;;;;25.04;100.00;99555.75;1633701;87;21039;-44
2021/07/03 09:03:57;;;;;;;6.80;4.17;;;;;;;25.07;100.00;99551.23;1691515;82;20968;-43
2021/07/03 09:06:31;;;;;;;7.97;4.72;;;;;;;25.12;100.00;99552.83;1697603;82;21249;-43
2021/07/03 09:08:59;;;;;;;4.87;4.45;;;;;;;25.15;100.00;99550.20;1698315;82;21002;-41
2021/07/03 09:11:26;;;;;;;4.50;4.10;;;;;;;25.11;100.00;99549.80;1693167;83;21424;-43
2021/07/03 09:14:09;;;;;;;4.50;4.10;;;;;;;25.08;100.00;99551.58;1696599;82;20924;-43
2021/07/03 09:16:35;;;;;;;5.08;4.58;;;;;;;25.05;100.00;99551.47;1692917;82;21352;-43
2021/07/03 09:19:04;;;;;;;6.37;4.50;;;;;;;25.01;100.00;99543.37;1701339;82;21320;-42
2021/07/03 09:21:32;;;;;;;5.87;4.08;;;;;;;24.99;100.00;99550.08;1704182;82;21040;-42
2021/07/03 09:23:59;;;;;;;4.45;3.98;;;;;;;24.98;100.00;99555.22;1696715;82;21004;-43
2021/07/03 09:26:26;;;;;;;6.78;3.65;;;;;;;25.00;100.00;99556.70;1699441;82;21040;-41
2021/07/03 09:28:52;;;;;;;4.42;3.72;;;;;;;25.06;100.00;99557.75;1697638;82;20980;-43
2021/07/03 09:31:20;;;;;;;4.72;4.25;;;;;;;25.10;100.00;99555.44;1708192;82;20944;-43
2021/07/03 09:33:53;;;;;;;7.80;4.25;;;;;;;25.13;100.00;99561.34;1703900;83;21512;-43
2021/07/03 09:36:27;;;;;;;4.55;3.55;;;;;;;25.18;100.00;99564.84;1705027;83;21452;-43
2021/07/03 09:38:55;;;;;;;4.97;4.10;;;;;;;25.22;100.00;99562.01;1714680;82;20999;-43
2021/07/03 09:41:33;;;;;;;4.42;3.77;;;;;;;25.26;100.00;99560.55;1702908;82;20964;-43
2021/07/03 09:44:07;;;;;;;6.50;4.60;;;;;;;25.29;100.00;99565.59;1710591;82;21068;-43
2021/07/03 09:46:35;;;;;;;4.22;3.62;;;;;;;25.32;100.00;99556.98;1700101;83;21376;-42
2021/07/03 09:49:14;;;;;;;5.22;4.72;;;;;;;25.37;100.00;99549.55;1706155;81;21577;-44
2021/07/03 09:51:50;;;;;;;4.62;4.22;;;;;;;25.44;100.00;99542.21;1730272;82;20987;-44
2021/07/03 09:54:19;;;;;;;4.45;4.05;;;;;;;25.49;100.00;99538.33;1722736;81;20936;-44
2021/07/03 09:56:47;;;;;;;4.13;3.73;;;;;;;25.54;100.00;99545.36;1729495;82;20955;-46
2021/07/03 09:59:14;;;;;;;4.72;4.08;;;;;;;25.58;100.00;99543.91;1725863;81;20945;-44
2021/07/03 10:01:43;;;;;;;5.33;4.40;;;;;;;25.58;100.00;99538.45;1722171;81;21380;-44
2021/07/03 10:04:10;;;;;;;5.45;4.00;;;;;;;25.60;100.00;99539.59;1727463;81;21486;-44
2021/07/03 10:06:54;;;;;;;5.17;4.72;;;;;;;25.60;100.00;99538.22;1734074;81;20936;-47
2021/07/03 10:09:36;;;;;;;5.00;4.40;;;;;;;25.61;100.00;99533.93;1704285;81;20970;-48
2021/07/03 10:12:13;;;;;;;5.72;4.42;;;;;;;25.61;100.00;99522.18;1728705;81;20942;-45
2021/07/03 10:14:46;;;;;;;5.70;5.20;;;;;;;25.63;100.00;99524.18;1725489;81;20950;-43
2021/07/03 10:17:25;;;;;;;6.60;4.72;;;;;;;25.62;100.00;99523.31;1723856;81;20917;-50
2021/07/03 10:19:52;;;;;;;6.33;5.15;;;;;;;25.61;100.00;99508.00;1728610;81;21455;-43
2021/07/03 10:22:25;;;;;;;6.58;6.00;;;;;;;25.62;100.00;99500.65;1728009;82;21458;-45
2021/07/03 10:24:59;;;;;;;7.10;6.30;;;;;;;25.62;100.00;99501.48;1727026;81;20998;-46
2021/07/03 10:27:31;;;;;;;6.83;6.10;;;;;;;25.62;100.00;99502.84;1714437;82;20963;-45
2021/07/03 10:30:00;;;;;;;5.97;5.37;;;;;;;25.59;100.00;99503.27;1727748;82;20969;-44
2021/07/03 10:32:36;;;;;;;7.03;5.80;;;;;;;25.57;100.00;99499.91;1728071;82;20974;-44
2021/07/03 10:35:15;;;;;;;6.10;5.58;;;;;;;25.56;100.00;99510.53;1726525;82;20924;-46
2021/07/03 10:37:42;;;;;;;5.90;5.40;;;;;;;25.56;100.00;99505.60;1736683;82;20931;-44
2021/07/03 10:40:24;;;;;;;6.42;5.83;;;;;;;25.54;100.00;99513.16;1718249;81;21014;-43
2021/07/03 10:42:52;;;;;;;6.03;5.35;;;;;;;25.55;100.00;99520.28;1720678;82;20911;-42
2021/07/03 10:45:24;;;;;;;6.67;5.47;;;;;;;25.55;100.00;99521.64;1719827;82;20963;-43
2021/07/03 10:47:54;;;;;;;6.05;5.55;;;;;;;25.54;100.00;99524.90;1723975;81;20974;-42
2021/07/03 10:50:29;;;;;;;11.48;6.40;;;;;;;25.54;100.00;99532.25;1732231;82;20931;-41
2021/07/03 10:52:57;;;;;;;6.22;5.53;;;;;;;25.54;100.00;99537.18;1735996;81;20962;-45
2021/07/03 10:55:30;;;;;;;5.65;5.15;;;;;;;25.52;100.00;99536.55;1741606;82;20994;-47
2021/07/03 10:57:58;;;;;;;6.12;5.53;;;;;;;25.52;100.00;99532.98;1742978;82;21407;-46
2021/07/03 11:00:26;;;;;;;6.95;6.08;;;;;;;25.50;100.00;99538.64;1733963;82;20991;-46
2021/07/03 11:02:53;;;;;;;7.55;6.58;;;;;;;25.51;100.00;99534.05;1747897;80;20927;-44
2021/07/03 11:05:20;;;;;;;7.80;6.10;;;;;;;25.51;100.00;99535.41;1736228;82;21468;-45
2021/07/03 11:07:46;;;;;;;7.28;6.15;;;;;;;25.51;100.00;99534.88;1749618;82;20954;-45
2021/07/03 11:10:19;;;;;;;8.28;7.20;;;;;;;25.52;100.00;99535.17;1734167;82;20898;-45
2021/07/03 11:12:52;;;;;;;8.15;7.25;;;;;;;25.53;100.00;99536.02;1738256;82;20907;-44
2021/07/03 11:15:27;;;;;;;8.50;7.70;;;;;;;25.54;100.00;99528.16;1740108;80;20946;-45
2021/07/03 11:17:51;;;;;;;8.00;7.20;;;;;;;25.55;100.00;99523.00;1740384;82;21768;-42
2021/07/03 11:20:27;;;;;;;10.15;7.85;;;;;;;25.53;100.00;99517.78;1737732;82;21581;-41
2021/07/03 11:22:54;;;;;;;9.00;7.85;;;;;;;25.53;100.00;99520.50;1742839;82;20993;-44
2021/07/03 11:25:33;;;;;;;9.08;7.75;;;;;;;25.51;100.00;99523.96;1682644;83;21016;-44
2021/07/03 11:28:15;;;;;;;10.93;9.80;;;;;;;25.48;100.00;99529.31;1748005;82;20974;-44
2021/07/03 11:30:47;;;;;;;9.13;8.23;;;;;;;25.48;100.00;99525.75;1736084;82;20912;-44
2021/07/03 11:33:14;;;;;;;9.40;8.00;;;;;;;25.50;100.00;99527.72;1739710;82;21378;-41
2021/07/03 11:35:46;;;;;;;8.13;7.37;;;;;;;25.54;100.00;99526.80;1690331;84;20971;-41